Red Lake Airport
CYRL : now visible

Airfield :











YOU CAN JOIN US ON...

 
LOGIN :

Register | Disclaimer

   EN    FR    IT 

 









Legend :    VFR   Marginal VFR   IFR   Intensive IFR   Very Intensive IFR
Visi :
Ceiling :
>= 8 km
>= 3000ft
5 to 8 km
1000 to 3000 ft
1500m to 5 km
500 to 1000 ft
800 to 1500m
200 to 500 ft
< 800m
< 200 ft
Symbols :   Thunderstorms  Fog  Heavy snow  Heavy precipitations  Wind > 20 kt






- Airport Elevation : 1265 ft
- IATA code : YRL


CYRL - Red Lake

CURRENT METAR :
  • 101300Z 23003KT 170V260 15SM FEW070 FEW100 BKN240 M07/M10 A2992 RMK AC1AC1CI4 SLP159

EXPIRED METARs :
  • 101200Z 18003KT 15SM FEW070 FEW240 M09/M10 A2993 RMK AC2CI1 CI TR SLP162
  • 101100Z 00000KT 15SM FEW040 FEW240 M09/M10 A2993 RMK SC1CI1 SC TR CI TR FROIN SLP163

TAF TAF CYRL
Valid from the 10 at 11:00 until the 10 at 23:00 UTC


101038Z 1011/1023 VRB03KT P6SM FEW240
FM101500 17005KT P6SM BKN080 RMK NXT FCST BY 101400Z



MET'MAP, your aeronautical weather chart ! - Copyright ORBIFLY December 2007 - Disclaimer

ORBIFLY MET'MAP TEAM :

Programming & Development : Alexandra Zaïnal
Concept & original design : Baudouin d'Aumeries
Assistance for programming : Marc-Olivier Méhu
Technical & hardware support : Manuel Goepfert

Contact : metmap@orbifly.com




SOURCES & CREDITS :

   NOAA       Earth
Advisory